sensor_id;sensor_type;location;lat;lon;timestamp;pressure;altitude;pressure_sealevel;temperature;humidity
52651;BME280;38537;47.226;39.702;2023-03-26T00:01:30;100002.47;;;13.38;62.53
52651;BME280;38537;47.226;39.702;2023-03-26T00:04:02;100000.03;;;13.28;62.57
52651;BME280;38537;47.226;39.702;2023-03-26T00:06:35;99973.84;;;13.07;62.66
52651;BME280;38537;47.226;39.702;2023-03-26T00:09:08;99985.72;;;13.12;63.28
52651;BME280;38537;47.226;39.702;2023-03-26T00:11:35;99978.47;;;13.02;63.15
52651;BME280;38537;47.226;39.702;2023-03-26T00:14:05;99982.47;;;12.93;63.50
52651;BME280;38537;47.226;39.702;2023-03-26T00:16:32;99965.53;;;12.72;63.51
52651;BME280;38537;47.226;39.702;2023-03-26T00:19:00;99990.09;;;12.75;63.89
52651;BME280;38537;47.226;39.702;2023-03-26T00:21:29;99982.03;;;12.65;63.87
52651;BME280;38537;47.226;39.702;2023-03-26T00:23:59;99967.88;;;12.53;64.50
52651;BME280;38537;47.226;39.702;2023-03-26T00:26:32;99981.56;;;12.54;64.76
52651;BME280;38537;47.226;39.702;2023-03-26T00:29:00;99956.34;;;12.37;64.70
52651;BME280;38537;47.226;39.702;2023-03-26T00:31:29;99966.91;;;12.31;64.73
52651;BME280;38537;47.226;39.702;2023-03-26T00:33:57;99951.59;;;12.29;65.04
52651;BME280;38537;47.226;39.702;2023-03-26T00:36:26;99950.75;;;12.28;64.95
52651;BME280;38537;47.226;39.702;2023-03-26T00:38:54;99964.06;;;12.40;65.46
52651;BME280;38537;47.226;39.702;2023-03-26T00:41:23;99965.41;;;12.43;65.33
52651;BME280;38537;47.226;39.702;2023-03-26T00:43:54;99972.00;;;12.47;65.67
52651;BME280;38537;47.226;39.702;2023-03-26T00:46:24;99944.31;;;12.36;65.11
52651;BME280;38537;47.226;39.702;2023-03-26T00:48:52;99919.81;;;12.33;65.36
52651;BME280;38537;47.226;39.702;2023-03-26T00:51:20;99955.84;;;12.52;65.01
52651;BME280;38537;47.226;39.702;2023-03-26T00:53:49;99907.28;;;12.31;65.38
52651;BME280;38537;47.226;39.702;2023-03-26T00:56:17;99941.81;;;12.61;65.07
52651;BME280;38537;47.226;39.702;2023-03-26T00:58:45;99928.66;;;12.53;65.01
52651;BME280;38537;47.226;39.702;2023-03-26T01:01:18;99938.03;;;12.57;65.22
52651;BME280;38537;47.226;39.702;2023-03-26T01:03:47;99893.91;;;12.36;65.37
52651;BME280;38537;47.226;39.702;2023-03-26T01:06:33;99944.63;;;12.61;64.94
52651;BME280;38537;47.226;39.702;2023-03-26T01:09:14;99940.16;;;12.60;65.65
52651;BME280;38537;47.226;39.702;2023-03-26T01:11:42;99936.38;;;12.56;65.16
52651;BME280;38537;47.226;39.702;2023-03-26T01:14:22;99924.88;;;12.40;65.76
52651;BME280;38537;47.226;39.702;2023-03-26T01:17:00;99918.47;;;12.40;65.78
52651;BME280;38537;47.226;39.702;2023-03-26T01:19:46;99942.47;;;12.58;65.75
52651;BME280;38537;47.226;39.702;2023-03-26T01:22:20;99919.59;;;12.39;65.24
52651;BME280;38537;47.226;39.702;2023-03-26T01:24:49;99943.00;;;12.51;65.30
52651;BME280;38537;47.226;39.702;2023-03-26T01:38:13;99928.66;;;12.35;65.76
52651;BME280;38537;47.226;39.702;2023-03-26T01:43:27;99933.59;;;12.39;66.19
52651;BME280;38537;47.226;39.702;2023-03-26T01:46:00;99923.06;;;12.35;65.84
52651;BME280;38537;47.226;39.702;2023-03-26T01:48:35;99927.84;;;12.35;66.47
52651;BME280;38537;47.226;39.702;2023-03-26T01:51:04;99928.53;;;12.32;65.96
52651;BME280;38537;47.226;39.702;2023-03-26T01:53:34;99905.63;;;12.21;66.29
52651;BME280;38537;47.226;39.702;2023-03-26T01:58:59;99916.81;;;12.39;65.97
52651;BME280;38537;47.226;39.702;2023-03-26T02:01:42;99916.13;;;12.59;65.91
52651;BME280;38537;47.226;39.702;2023-03-26T02:04:25;99923.72;;;12.41;66.50
52651;BME280;38537;47.226;39.702;2023-03-26T02:07:06;99894.44;;;12.21;66.37
52651;BME280;38537;47.226;39.702;2023-03-26T02:09:43;99921.25;;;12.40;65.95
52651;BME280;38537;47.226;39.702;2023-03-26T02:12:16;99881.25;;;12.22;65.49
52651;BME280;38537;47.226;39.702;2023-03-26T02:14:44;99911.22;;;12.39;65.46
52651;BME280;38537;47.226;39.702;2023-03-26T02:17:31;99901.16;;;12.38;65.06
52651;BME280;38537;47.226;39.702;2023-03-26T02:19:59;99887.38;;;12.32;65.00
52651;BME280;38537;47.226;39.702;2023-03-26T02:22:37;99883.75;;;12.32;64.92
52651;BME280;38537;47.226;39.702;2023-03-26T02:25:17;99890.63;;;12.43;65.01
52651;BME280;38537;47.226;39.702;2023-03-26T02:27:47;99888.81;;;12.39;65.18
52651;BME280;38537;47.226;39.702;2023-03-26T02:30:19;99902.81;;;12.47;65.05
52651;BME280;38537;47.226;39.702;2023-03-26T02:32:49;99906.91;;;12.50;65.03
52651;BME280;38537;47.226;39.702;2023-03-26T02:35:20;99894.06;;;12.40;65.06
52651;BME280;38537;47.226;39.702;2023-03-26T02:37:54;99913.47;;;12.71;65.46
52651;BME280;38537;47.226;39.702;2023-03-26T02:40:21;99907.59;;;12.55;64.73
52651;BME280;38537;47.226;39.702;2023-03-26T02:42:49;99902.47;;;12.49;64.87
52651;BME280;38537;47.226;39.702;2023-03-26T02:45:17;99879.91;;;12.36;65.32
52651;BME280;38537;47.226;39.702;2023-03-26T02:48:04;99885.03;;;12.43;64.93
52651;BME280;38537;47.226;39.702;2023-03-26T02:51:04;99905.09;;;12.54;65.02
52651;BME280;38537;47.226;39.702;2023-03-26T02:53:35;99896.56;;;12.42;65.14
52651;BME280;38537;47.226;39.702;2023-03-26T02:56:27;99909.22;;;12.48;65.28
52651;BME280;38537;47.226;39.702;2023-03-26T02:59:17;99892.59;;;12.43;65.02
52651;BME280;38537;47.226;39.702;2023-03-26T03:01:49;99890.94;;;12.42;65.31
52651;BME280;38537;47.226;39.702;2023-03-26T03:04:17;99882.91;;;12.31;65.32
52651;BME280;38537;47.226;39.702;2023-03-26T03:06:46;99892.09;;;12.41;65.13
52651;BME280;38537;47.226;39.702;2023-03-26T03:09:19;99892.59;;;12.43;65.12
52651;BME280;38537;47.226;39.702;2023-03-26T03:12:16;99882.53;;;12.42;65.04
52651;BME280;38537;47.226;39.702;2023-03-26T03:14:43;99866.59;;;12.33;64.92
52651;BME280;38537;47.226;39.702;2023-03-26T03:17:10;99887.31;;;12.50;65.25
52651;BME280;38537;47.226;39.702;2023-03-26T03:19:37;99844.88;;;12.30;64.91
52651;BME280;38537;47.226;39.702;2023-03-26T03:22:04;99863.63;;;12.39;65.23
52651;BME280;38537;47.226;39.702;2023-03-26T03:24:33;99876.41;;;12.57;65.21
52651;BME280;38537;47.226;39.702;2023-03-26T03:27:00;99874.13;;;12.50;65.28
52651;BME280;38537;47.226;39.702;2023-03-26T03:29:37;99859.50;;;12.45;65.01
52651;BME280;38537;47.226;39.702;2023-03-26T03:32:40;99874.94;;;12.59;64.76
52651;BME280;38537;47.226;39.702;2023-03-26T03:35:10;99864.19;;;12.70;64.91
52651;BME280;38537;47.226;39.702;2023-03-26T03:37:39;99870.03;;;12.94;64.16
52651;BME280;38537;47.226;39.702;2023-03-26T03:40:08;99875.25;;;13.04;64.07
52651;BME280;38537;47.226;39.702;2023-03-26T03:42:38;99873.44;;;13.09;64.16
52651;BME280;38537;47.226;39.702;2023-03-26T03:45:07;99851.09;;;12.91;64.03
52651;BME280;38537;47.226;39.702;2023-03-26T03:47:57;99831.34;;;12.79;64.33
52651;BME280;38537;47.226;39.702;2023-03-26T03:50:40;99850.13;;;12.87;64.05
52651;BME280;38537;47.226;39.702;2023-03-26T03:53:28;99852.72;;;12.92;64.22
52651;BME280;38537;47.226;39.702;2023-03-26T03:55:58;99862.44;;;12.95;64.23
52651;BME280;38537;47.226;39.702;2023-03-26T03:58:56;99829.66;;;12.95;64.08
52651;BME280;38537;47.226;39.702;2023-03-26T04:01:30;99852.66;;;13.10;63.78
52651;BME280;38537;47.226;39.702;2023-03-26T04:04:11;99847.88;;;13.10;63.58
52651;BME280;38537;47.226;39.702;2023-03-26T04:06:50;99858.25;;;13.10;63.42
52651;BME280;38537;47.226;39.702;2023-03-26T04:09:19;99849.69;;;13.06;63.73
52651;BME280;38537;47.226;39.702;2023-03-26T04:11:47;99868.66;;;13.09;63.18
52651;BME280;38537;47.226;39.702;2023-03-26T04:14:39;99846.81;;;13.23;63.57
52651;BME280;38537;47.226;39.702;2023-03-26T04:17:18;99863.91;;;13.39;63.29
52651;BME280;38537;47.226;39.702;2023-03-26T04:19:50;99854.63;;;13.18;62.96
52651;BME280;38537;47.226;39.702;2023-03-26T04:22:19;99846.06;;;13.05;63.00
52651;BME280;38537;47.226;39.702;2023-03-26T04:24:53;99859.41;;;13.17;63.48
52651;BME280;38537;47.226;39.702;2023-03-26T04:27:59;99864.00;;;13.13;63.22
52651;BME280;38537;47.226;39.702;2023-03-26T04:30:45;99851.22;;;13.33;63.20
52651;BME280;38537;47.226;39.702;2023-03-26T04:33:33;99863.13;;;13.30;62.80
52651;BME280;38537;47.226;39.702;2023-03-26T04:36:03;99825.44;;;13.10;62.82
52651;BME280;38537;47.226;39.702;2023-03-26T04:38:40;99830.03;;;13.15;63.04
52651;BME280;38537;47.226;39.702;2023-03-26T04:41:11;99852.72;;;13.30;62.64
52651;BME280;38537;47.226;39.702;2023-03-26T04:43:59;99829.09;;;13.40;62.51
52651;BME280;38537;47.226;39.702;2023-03-26T04:46:38;99831.06;;;13.40;62.10
52651;BME280;38537;47.226;39.702;2023-03-26T04:49:21;99822.84;;;13.34;62.20
52651;BME280;38537;47.226;39.702;2023-03-26T04:51:48;99825.81;;;13.38;62.20
52651;BME280;38537;47.226;39.702;2023-03-26T04:54:54;99819.63;;;13.45;61.80
52651;BME280;38537;47.226;39.702;2023-03-26T04:57:27;99831.47;;;13.50;61.66
52651;BME280;38537;47.226;39.702;2023-03-26T05:00:12;99805.50;;;13.41;61.61
52651;BME280;38537;47.226;39.702;2023-03-26T05:02:51;99823.16;;;13.62;61.73
52651;BME280;38537;47.226;39.702;2023-03-26T05:05:24;99814.31;;;13.52;61.32
52651;BME280;38537;47.226;39.702;2023-03-26T05:07:53;99824.22;;;13.70;61.44
52651;BME280;38537;47.226;39.702;2023-03-26T05:10:21;99831.22;;;13.85;61.02
52651;BME280;38537;47.226;39.702;2023-03-26T05:12:56;99833.22;;;13.84;61.28
52651;BME280;38537;47.226;39.702;2023-03-26T05:15:32;99818.06;;;13.77;60.94
52651;BME280;38537;47.226;39.702;2023-03-26T05:18:12;99823.00;;;13.80;61.00
52651;BME280;38537;47.226;39.702;2023-03-26T05:20:42;99806.56;;;13.69;60.82
52651;BME280;38537;47.226;39.702;2023-03-26T05:23:10;99822.81;;;13.85;60.79
52651;BME280;38537;47.226;39.702;2023-03-26T05:25:41;99818.56;;;13.79;60.38
52651;BME280;38537;47.226;39.702;2023-03-26T05:28:15;99832.16;;;13.89;60.80
52651;BME280;38537;47.226;39.702;2023-03-26T05:31:12;99829.34;;;13.89;60.67
52651;BME280;38537;47.226;39.702;2023-03-26T05:33:45;99839.41;;;13.90;60.47
52651;BME280;38537;47.226;39.702;2023-03-26T05:36:13;99795.97;;;13.54;60.70
52651;BME280;38537;47.226;39.702;2023-03-26T05:38:53;99844.28;;;13.81;60.56
52651;BME280;38537;47.226;39.702;2023-03-26T05:41:40;99808.63;;;13.60;60.79
52651;BME280;38537;47.226;39.702;2023-03-26T05:44:08;99806.09;;;13.67;60.71
52651;BME280;38537;47.226;39.702;2023-03-26T05:46:35;99799.06;;;13.61;61.05
52651;BME280;38537;47.226;39.702;2023-03-26T05:49:02;99800.72;;;13.62;60.76
52651;BME280;38537;47.226;39.702;2023-03-26T05:51:33;99821.56;;;13.73;60.80
52651;BME280;38537;47.226;39.702;2023-03-26T05:54:20;99813.69;;;13.67;60.98
52651;BME280;38537;47.226;39.702;2023-03-26T05:57:06;99806.50;;;13.57;60.85
52651;BME280;38537;47.226;39.702;2023-03-26T05:59:52;99827.31;;;13.77;60.98
52651;BME280;38537;47.226;39.702;2023-03-26T06:02:38;99834.97;;;13.89;60.59
52651;BME280;38537;47.226;39.702;2023-03-26T06:05:26;99803.09;;;13.72;60.48
52651;BME280;38537;47.226;39.702;2023-03-26T06:08:25;99805.19;;;13.76;60.80
52651;BME280;38537;47.226;39.702;2023-03-26T06:11:03;99817.28;;;13.88;61.01
52651;BME280;38537;47.226;39.702;2023-03-26T06:13:35;99819.50;;;14.03;60.54
52651;BME280;38537;47.226;39.702;2023-03-26T06:16:02;99828.06;;;14.19;60.31
52651;BME280;38537;47.226;39.702;2023-03-26T06:18:32;99819.38;;;14.12;60.34
52651;BME280;38537;47.226;39.702;2023-03-26T06:21:18;99806.84;;;14.10;59.98
52651;BME280;38537;47.226;39.702;2023-03-26T06:23:54;99798.53;;;14.01;60.09
52651;BME280;38537;47.226;39.702;2023-03-26T06:26:41;99827.09;;;14.03;60.08
52651;BME280;38537;47.226;39.702;2023-03-26T06:29:28;99800.69;;;13.83;60.26
52651;BME280;38537;47.226;39.702;2023-03-26T06:32:02;99822.38;;;13.95;60.61
52651;BME280;38537;47.226;39.702;2023-03-26T06:34:54;99806.31;;;13.83;60.81
52651;BME280;38537;47.226;39.702;2023-03-26T06:37:22;99812.56;;;14.01;60.76
52651;BME280;38537;47.226;39.702;2023-03-26T06:39:54;99771.56;;;13.88;60.63
52651;BME280;38537;47.226;39.702;2023-03-26T06:42:40;99814.16;;;14.23;60.17
52651;BME280;38537;47.226;39.702;2023-03-26T06:45:54;99798.63;;;14.25;60.38
52651;BME280;38537;47.226;39.702;2023-03-26T06:48:37;99775.41;;;14.04;59.91
52651;BME280;38537;47.226;39.702;2023-03-26T06:51:31;99802.47;;;14.33;59.72
52651;BME280;38537;47.226;39.702;2023-03-26T06:54:08;99803.59;;;14.53;59.72
52651;BME280;38537;47.226;39.702;2023-03-26T06:56:48;99812.06;;;14.77;59.36
52651;BME280;38537;47.226;39.702;2023-03-26T06:59:34;99780.66;;;14.51;58.91
52651;BME280;38537;47.226;39.702;2023-03-26T07:02:20;99793.22;;;14.65;59.25
52651;BME280;38537;47.226;39.702;2023-03-26T07:05:06;99787.72;;;14.81;58.89
52651;BME280;38537;47.226;39.702;2023-03-26T07:07:52;99782.69;;;14.87;58.83
52651;BME280;38537;47.226;39.702;2023-03-26T07:10:55;99764.44;;;14.68;58.93
52651;BME280;38537;47.226;39.702;2023-03-26T07:13:42;99790.66;;;14.85;58.86
52651;BME280;38537;47.226;39.702;2023-03-26T07:16:29;99757.84;;;14.77;58.92
52651;BME280;38537;47.226;39.702;2023-03-26T07:19:02;99788.31;;;14.99;59.08
52651;BME280;38537;47.226;39.702;2023-03-26T07:21:34;99765.13;;;14.90;58.61
52651;BME280;38537;47.226;39.702;2023-03-26T07:24:09;99788.28;;;15.35;58.78
52651;BME280;38537;47.226;39.702;2023-03-26T07:27:21;99760.97;;;15.24;58.31
52651;BME280;38537;47.226;39.702;2023-03-26T07:30:11;99755.81;;;15.26;57.94
52651;BME280;38537;47.226;39.702;2023-03-26T07:33:15;99779.34;;;15.46;58.09
52651;BME280;38537;47.226;39.702;2023-03-26T07:36:24;99771.47;;;15.63;57.99
52651;BME280;38537;47.226;39.702;2023-03-26T07:42:53;99767.09;;;15.78;57.52
52651;BME280;38537;47.226;39.702;2023-03-26T07:45:43;99754.53;;;15.75;56.80
52651;BME280;38537;47.226;39.702;2023-03-26T07:48:25;99773.34;;;15.99;56.77
52651;BME280;38537;47.226;39.702;2023-03-26T07:51:15;99760.72;;;16.25;57.04
52651;BME280;38537;47.226;39.702;2023-03-26T07:53:55;99754.13;;;16.49;56.90
52651;BME280;38537;47.226;39.702;2023-03-26T07:57:07;99747.03;;;16.55;56.11
52651;BME280;38537;47.226;39.702;2023-03-26T08:02:46;99747.53;;;16.88;56.29
52651;BME280;38537;47.226;39.702;2023-03-26T08:05:56;99726.22;;;16.91;55.96
52651;BME280;38537;47.226;39.702;2023-03-26T08:22:56;99711.69;;;17.24;55.38
52651;BME280;38537;47.226;39.702;2023-03-26T08:25:42;99730.41;;;17.32;54.78
52651;BME280;38537;47.226;39.702;2023-03-26T08:30:45;99713.97;;;17.37;54.52
52651;BME280;38537;47.226;39.702;2023-03-26T08:33:18;99720.47;;;17.57;53.93
52651;BME280;38537;47.226;39.702;2023-03-26T08:35:47;99705.97;;;17.59;54.66
52651;BME280;38537;47.226;39.702;2023-03-26T08:38:17;99728.44;;;17.90;53.84
52651;BME280;38537;47.226;39.702;2023-03-26T09:26:08;99721.06;;;19.23;50.96
52651;BME280;38537;47.226;39.702;2023-03-26T09:37:16;99704.31;;;19.67;50.91
52651;BME280;38537;47.226;39.702;2023-03-26T09:42:34;99702.34;;;19.74;50.30
52651;BME280;38537;47.226;39.702;2023-03-26T09:48:11;99682.06;;;19.69;50.55
52651;BME280;38537;47.226;39.702;2023-03-26T09:50:56;99690.59;;;20.06;50.32
52651;BME280;38537;47.226;39.702;2023-03-26T09:59:48;99682.94;;;20.50;50.17
52651;BME280;38537;47.226;39.702;2023-03-26T10:08:40;99675.06;;;20.33;50.41
52651;BME280;38537;47.226;39.702;2023-03-26T10:11:16;99669.47;;;20.40;50.13
52651;BME280;38537;47.226;39.702;2023-03-26T10:27:20;99668.38;;;20.15;50.83
52651;BME280;38537;47.226;39.702;2023-03-26T10:30:46;99660.00;;;20.26;50.50
52651;BME280;38537;47.226;39.702;2023-03-26T10:52:12;99662.09;;;19.28;51.75
52651;BME280;38537;47.226;39.702;2023-03-26T10:54:54;99649.09;;;19.24;51.96
52651;BME280;38537;47.226;39.702;2023-03-26T11:00:25;99669.09;;;19.08;52.34
52651;BME280;38537;47.226;39.702;2023-03-26T11:06:06;99647.25;;;19.05;52.43
52651;BME280;38537;47.226;39.702;2023-03-26T11:11:27;99646.75;;;18.73;52.41
52651;BME280;38537;47.226;39.702;2023-03-26T11:19:36;99654.81;;;18.25;53.36
52651;BME280;38537;47.226;39.702;2023-03-26T11:22:22;99636.97;;;18.21;53.68
52651;BME280;38537;47.226;39.702;2023-03-26T11:33:26;99626.88;;;17.97;53.60
52651;BME280;38537;47.226;39.702;2023-03-26T11:36:18;99661.19;;;17.76;54.06
52651;BME280;38537;47.226;39.702;2023-03-26T11:38:49;99633.72;;;17.73;54.19
52651;BME280;38537;47.226;39.702;2023-03-26T11:41:26;99631.66;;;17.93;53.83
52651;BME280;38537;47.226;39.702;2023-03-26T11:44:14;99650.28;;;17.98;53.49
52651;BME280;38537;47.226;39.702;2023-03-26T11:46:48;99656.13;;;17.86;53.66
52651;BME280;38537;47.226;39.702;2023-03-26T11:49:20;99636.94;;;17.75;53.93
52651;BME280;38537;47.226;39.702;2023-03-26T11:51:48;99632.75;;;17.66;54.09
52651;BME280;38537;47.226;39.702;2023-03-26T11:54:15;99616.75;;;17.54;53.58
52651;BME280;38537;47.226;39.702;2023-03-26T11:56:51;99638.28;;;17.62;53.97
52651;BME280;38537;47.226;39.702;2023-03-26T11:59:39;99644.84;;;17.08;54.47
52651;BME280;38537;47.226;39.702;2023-03-26T12:02:30;99633.47;;;16.70;55.14
52651;BME280;38537;47.226;39.702;2023-03-26T12:05:24;99647.22;;;16.56;55.87
52651;BME280;38537;47.226;39.702;2023-03-26T12:08:00;99627.00;;;16.19;56.73
52651;BME280;38537;47.226;39.702;2023-03-26T12:10:36;99624.53;;;16.17;56.59
52651;BME280;38537;47.226;39.702;2023-03-26T12:13:37;99640.88;;;16.27;56.74
52651;BME280;38537;47.226;39.702;2023-03-26T12:16:13;99630.53;;;16.00;57.07
52651;BME280;38537;47.226;39.702;2023-03-26T12:18:42;99611.25;;;15.70;57.26
52651;BME280;38537;47.226;39.702;2023-03-26T12:21:18;99613.34;;;15.73;57.53
52651;BME280;38537;47.226;39.702;2023-03-26T12:29:10;99593.38;;;15.51;58.14
52651;BME280;38537;47.226;39.702;2023-03-26T12:31:49;99641.25;;;16.10;57.23
52651;BME280;38537;47.226;39.702;2023-03-26T12:34:22;99636.25;;;16.35;56.34
52651;BME280;38537;47.226;39.702;2023-03-26T12:36:56;99638.84;;;16.75;55.35
52651;BME280;38537;47.226;39.702;2023-03-26T12:39:29;99643.22;;;16.57;55.31
52651;BME280;38537;47.226;39.702;2023-03-26T12:42:29;99622.78;;;16.28;55.57
52651;BME280;38537;47.226;39.702;2023-03-26T12:45:23;99633.25;;;16.43;55.46
52651;BME280;38537;47.226;39.702;2023-03-26T12:47:55;99640.56;;;16.48;55.24
52651;BME280;38537;47.226;39.702;2023-03-26T12:56:02;99647.91;;;16.84;54.43
52651;BME280;38537;47.226;39.702;2023-03-26T13:04:11;99641.69;;;16.94;53.97
52651;BME280;38537;47.226;39.702;2023-03-26T13:06:48;99640.38;;;17.07;53.43
52651;BME280;38537;47.226;39.702;2023-03-26T13:23:32;99634.75;;;16.72;53.77
52651;BME280;38537;47.226;39.702;2023-03-26T13:26:59;99649.13;;;17.02;53.40
52651;BME280;38537;47.226;39.702;2023-03-26T13:29:32;99638.03;;;17.09;52.66
52651;BME280;38537;47.226;39.702;2023-03-26T13:48:50;99629.28;;;16.79;52.92
52651;BME280;38537;47.226;39.702;2023-03-26T13:51:42;99641.22;;;16.57;53.18
52651;BME280;38537;47.226;39.702;2023-03-26T14:00:13;99595.19;;;15.87;53.98
52651;BME280;38537;47.226;39.702;2023-03-26T14:02:41;99597.19;;;16.02;54.21
52651;BME280;38537;47.226;39.702;2023-03-26T14:05:32;99603.63;;;15.87;54.27
52651;BME280;38537;47.226;39.702;2023-03-26T14:11:05;99616.97;;;15.90;54.21
52651;BME280;38537;47.226;39.702;2023-03-26T14:13:50;99607.16;;;16.15;53.92
52651;BME280;38537;47.226;39.702;2023-03-26T14:16:28;99624.59;;;16.36;53.55
52651;BME280;38537;47.226;39.702;2023-03-26T14:22:31;99629.91;;;15.63;54.94
52651;BME280;38537;47.226;39.702;2023-03-26T14:33:51;99633.03;;;15.46;55.43
52651;BME280;38537;47.226;39.702;2023-03-26T14:36:39;99611.88;;;15.36;55.62
52651;BME280;38537;47.226;39.702;2023-03-26T14:41:46;99633.03;;;15.46;55.50
52651;BME280;38537;47.226;39.702;2023-03-26T14:47:19;99648.63;;;15.15;56.24
52651;BME280;38537;47.226;39.702;2023-03-26T14:52:50;99653.75;;;15.25;56.25
52651;BME280;38537;47.226;39.702;2023-03-26T14:58:46;99626.69;;;15.21;56.71
52651;BME280;38537;47.226;39.702;2023-03-26T15:10:20;99664.41;;;14.80;58.00
52651;BME280;38537;47.226;39.702;2023-03-26T15:13:02;99627.47;;;14.41;58.51
52651;BME280;38537;47.226;39.702;2023-03-26T15:21:38;99663.63;;;14.43;59.31
52651;BME280;38537;47.226;39.702;2023-03-26T15:41:11;99664.91;;;14.69;58.20
52651;BME280;38537;47.226;39.702;2023-03-26T15:56:27;99674.19;;;13.55;60.45
52651;BME280;38537;47.226;39.702;2023-03-26T15:58:53;99675.56;;;13.08;61.25
52651;BME280;38537;47.226;39.702;2023-03-26T16:04:55;99660.22;;;13.34;60.89
52651;BME280;38537;47.226;39.702;2023-03-26T16:07:59;99676.22;;;13.67;60.30
52651;BME280;38537;47.226;39.702;2023-03-26T16:10:41;99676.56;;;13.65;60.07
52651;BME280;38537;47.226;39.702;2023-03-26T16:13:40;99681.53;;;13.93;59.34
52651;BME280;38537;47.226;39.702;2023-03-26T16:22:04;99693.56;;;14.51;57.75
52651;BME280;38537;47.226;39.702;2023-03-26T16:24:38;99696.16;;;14.44;57.59
52651;BME280;38537;47.226;39.702;2023-03-26T16:27:25;99677.25;;;14.32;57.60
52651;BME280;38537;47.226;39.702;2023-03-26T16:32:32;99705.88;;;14.58;57.71
52651;BME280;38537;47.226;39.702;2023-03-26T16:35:31;99672.88;;;14.43;56.96
52651;BME280;38537;47.226;39.702;2023-03-26T16:38:02;99692.97;;;14.94;56.05
52651;BME280;38537;47.226;39.702;2023-03-26T16:40:34;99695.31;;;14.80;56.09
52651;BME280;38537;47.226;39.702;2023-03-26T16:43:35;99688.69;;;14.72;56.35
52651;BME280;38537;47.226;39.702;2023-03-26T16:57:44;99720.41;;;14.48;56.69
52651;BME280;38537;47.226;39.702;2023-03-26T17:03:09;99712.72;;;14.36;57.26
52651;BME280;38537;47.226;39.702;2023-03-26T17:09:23;99678.56;;;14.22;57.16
52651;BME280;38537;47.226;39.702;2023-03-26T17:12:02;99691.56;;;14.39;57.12
52651;BME280;38537;47.226;39.702;2023-03-26T17:20:22;99707.25;;;14.77;56.26
52651;BME280;38537;47.226;39.702;2023-03-26T17:23:32;99709.03;;;14.81;56.51
52651;BME280;38537;47.226;39.702;2023-03-26T17:26:27;99678.25;;;14.48;56.70
52651;BME280;38537;47.226;39.702;2023-03-26T17:42:29;99684.56;;;12.72;61.46
52651;BME280;38537;47.226;39.702;2023-03-26T17:45:00;99673.84;;;12.44;61.50
52651;BME280;38537;47.226;39.702;2023-03-26T17:47:47;99678.59;;;12.52;62.44
52651;BME280;38537;47.226;39.702;2023-03-26T17:50:26;99686.94;;;12.61;62.30
52651;BME280;38537;47.226;39.702;2023-03-26T17:52:59;99679.13;;;12.46;62.03
52651;BME280;38537;47.226;39.702;2023-03-26T17:55:33;99678.56;;;12.31;63.05
52651;BME280;38537;47.226;39.702;2023-03-26T17:58:04;99678.94;;;12.51;62.13
52651;BME280;38537;47.226;39.702;2023-03-26T18:00:41;99657.28;;;12.01;63.47
52651;BME280;38537;47.226;39.702;2023-03-26T18:03:29;99652.97;;;12.12;63.61
52651;BME280;38537;47.226;39.702;2023-03-26T18:17:44;99635.34;;;11.48;64.03
52651;BME280;38537;47.226;39.702;2023-03-26T18:20:23;99663.63;;;11.63;65.53
52651;BME280;38537;47.226;39.702;2023-03-26T18:22:54;99651.66;;;11.46;65.09
52651;BME280;38537;47.226;39.702;2023-03-26T18:25:30;99660.69;;;11.34;66.08
52651;BME280;38537;47.226;39.702;2023-03-26T18:28:04;99664.31;;;11.26;65.80
52651;BME280;38537;47.226;39.702;2023-03-26T18:30:43;99651.78;;;11.58;66.00
52651;BME280;38537;47.226;39.702;2023-03-26T18:33:14;99637.38;;;11.21;65.19
52651;BME280;38537;47.226;39.702;2023-03-26T18:35:45;99629.03;;;11.04;65.92
52651;BME280;38537;47.226;39.702;2023-03-26T18:38:19;99620.78;;;10.90;66.69
52651;BME280;38537;47.226;39.702;2023-03-26T18:41:02;99628.16;;;10.69;66.85
52651;BME280;38537;47.226;39.702;2023-03-26T18:43:32;99642.47;;;10.59;67.66
52651;BME280;38537;47.226;39.702;2023-03-26T18:46:12;99650.50;;;10.52;68.20
52651;BME280;38537;47.226;39.702;2023-03-26T18:48:41;99621.91;;;10.38;68.17
52651;BME280;38537;47.226;39.702;2023-03-26T18:51:09;99614.34;;;10.38;68.15
52651;BME280;38537;47.226;39.702;2023-03-26T18:53:40;99631.78;;;10.52;68.65
52651;BME280;38537;47.226;39.702;2023-03-26T18:56:18;99640.81;;;10.58;69.17
52651;BME280;38537;47.226;39.702;2023-03-26T18:58:50;99625.97;;;10.40;68.98
52651;BME280;38537;47.226;39.702;2023-03-26T19:01:20;99607.91;;;10.29;69.27
52651;BME280;38537;47.226;39.702;2023-03-26T19:03:52;99616.44;;;10.24;68.90
52651;BME280;38537;47.226;39.702;2023-03-26T19:06:21;99611.34;;;10.26;69.23
52651;BME280;38537;47.226;39.702;2023-03-26T19:08:49;99611.19;;;10.22;69.36
52651;BME280;38537;47.226;39.702;2023-03-26T19:11:17;99614.75;;;10.14;69.68
52651;BME280;38537;47.226;39.702;2023-03-26T19:13:57;99619.34;;;10.10;70.55
52651;BME280;38537;47.226;39.702;2023-03-26T19:16:26;99599.25;;;9.91;70.38
52651;BME280;38537;47.226;39.702;2023-03-26T19:19:02;99609.44;;;9.95;70.82
52651;BME280;38537;47.226;39.702;2023-03-26T19:21:32;99602.19;;;9.86;70.61
52651;BME280;38537;47.226;39.702;2023-03-26T19:24:01;99611.88;;;9.88;71.10
52651;BME280;38537;47.226;39.702;2023-03-26T19:26:29;99621.75;;;9.94;71.22
52651;BME280;38537;47.226;39.702;2023-03-26T19:28:57;99597.25;;;9.83;71.23
52651;BME280;38537;47.226;39.702;2023-03-26T19:31:36;99593.97;;;9.81;72.52
52651;BME280;38537;47.226;39.702;2023-03-26T19:39:35;99614.22;;;10.04;71.93
52651;BME280;38537;47.226;39.702;2023-03-26T19:42:05;99597.94;;;9.97;71.47
52651;BME280;38537;47.226;39.702;2023-03-26T19:44:36;99598.94;;;10.01;72.03